Archival Weather

Sydney Intl

Sydney, Australia (YSSY)

Report from: Sunday, March 19, 2023 6:53 AM AEDT
Current time: Saturday, June 22, 2024 10:53 AM AEST

Current weather – Weather history – Daily summaries
Weather forecast

Temperature22.0°C (71.6°F)
Dew point20.0°C (68.0°F)
Winds 6 kts (3.1 m/s, 6.9 mph) Northwest (310°)
Visibility6.2 mi. (10 km)
Clouds Ceiling: Broken clouds 300 ft. (91 m)
Altimeter30.03 in.Hg (1017 mB)
Relative humidity88 %
Density altitude1,006 ft. (307 m)
Remarks Special weather observation
Flight conditions Low Instrument Meteorological Conditions
Raw dataSPAU31 KWBC 182001 SPECI YSSY 181953Z 31006KT 9999 BKN003 22/20 Q1017 BR
An error has occurred. This application may no longer respond until reloaded. Reload 🗙